EA1IQT
43.32.27N 005.42.45W
IN73DM aprs.fi
zuletzt gehoert:
2022-10-05T14:30:18Z
zuerst gehoert:
2020-02-16T10:00:18Z

APRS Gijón/Xixón [IN73DM], 2 Stunde(n), EA1IQT [20:08:15, 0s].
EB1TK 43.32.22N 005.42.32WIN73DM 0.143km 332°NNW19:05:15ZWind 083°/013kn, Böen bis 022kn, Temp 12.22c, Regen 0.0mm, letzte 24h 0.0mm, seit 0h 0.0mm, Baro 1022.4h, Hum: 73%(3EB1TK-13)
LEEL 43.32.98N 005.41.71WIN73DN 1.686km 26°NNE19:00:05ZHelipuerto de El Musel: LEAS 011800Z 10008KT 070V140 9999 FEW030 10/06 Q1019 NOSIG=
EA1FFA 43.31.53N 005.40.64WIN73DM 2.475km 118°ESE18:53:39ZMMDVM MMDVM HS Hat 438.8000/438.8000 CC1(3EA1FFA-1)
EB1EHT 43.32.47N 005.40.40WIN73DM 2.563km 77°ENE18:49:44ZMMDVM MMDVM HS Hat 433.5550/433.5550 CC2(3EB1EHT-1)
440 MMDVM Voice 433.55500MHz +0.0000MHz, APRS for DMRGateway(2EB1EHT-D)
EA1IEJ 43.31.83N 005.40.22WIN73DM 2.809km 103°ESE18:53:27ZMMDVM DMO 222.3400/222.3400 CC1(3EA1IEJ-11)
EA1DZR 43.31.47N 005.40.00WIN73DM 3.296km 113°ESE18:53:17ZMMDVM DV ADER 434.3500/434.3500 CC1(3EA1DZR-4)
MMDVM MMDVM HS Hat 432.2000/432.2000 CC2(2EA1DZR-2)
MMDVM DVMega 431.1000/431.1000 CC1(2EA1DZR-1)
EA4ACU 43.29.56N 005.38.92WIN73EL 6.574km 137°SE18:54:13ZMMDVM MMDVM HS Hat 432.7000/432.7000 CC1(3EA4ACU-1)
ED1ZAE 43.27.99N 005.40.54WIN73DL 8.069km 163°SSE19:04:38Z400 M. PICO SAN MARTIN (GIJON) 13.1V,9.8C(3ED1ZAE-3)
ED1ZAS 43.27.52N 005.40.17WIN73DL 9.031km 162°SSE18:51:14ZRD985 438.2250/430.6250 CC1
EB1GEM 43.30.00N 005.36.07WIN73EM 9.236km 116°ESE18:57:08ZWX3in1Plus2.0 U=13.3V,T=??.?C/??.?F(3EB1GEM-3)
EA1AXV 43.37.36N 005.47.23WIN73CO 11.724km 325°NW18:16:13Zop.maria isabel - Luanco /Asturias {UIV32}
EA1IPU 43.26.21N 005.46.62WIN73CK 12.467km 208°SSW18:53:19ZMMDVM MMDVM HS Hat 439.8000/439.8000 CC1(3EA1IPU-1)
LEGM 43.26.15N 005.49.84WIN73CK 15.075km 223°SW19:00:04ZHelipuerto de La Morgal (123.500MHz): LEAS 011800Z 10008KT 070V140 9999 FEW030 10/06 Q1019 NOSIG=
LEMR 43.25.83N 005.49.60WIN73CK 15.331km 220°SW19:00:05ZAerodromo de la Morgal (123.500MHz): LEAS 011800Z 10008KT 070V140 9999 FEW030 10/06 Q1019 NOSIG=
EA1ABW 43.24.77N 005.47.77WIN73CJ 15.556km 208°SSW18:52:57ZMMDVM MMDVM HS Hat 439.8250/439.8250 CC1(3EA1ABW-2)
EA1AHA 43.32.72N 005.54.38WIN73BN 16.300km 274°W19:03:13ZMMDVM MMDVM HS 433.5000/433.5000 CC1
Wind 090°/006kn, Böen bis 009kn, Temp 11.67c, Regen 0.0mm, letzte 24h 0.0mm, seit 0h 0.0mm, Baro 1021.3h, Hum: 67%(2EA1AHA-13)
EA1JW 43.31.35N 005.28.83WIN73GM 18.118km 95°E18:53:10ZMMDVM MMDVM HS Hat 436.5000/436.5000 CC1(3EA1JW-3)
EA1DZL 43.33.56N 005.55.78WIN73AN 18.328km 278°W18:54:45ZMMDVM MMDVM HS Hat 438.8000/438.8000 CC1(3EA1DZL-1)
ED1ZAY 43.29.47N 005.56.54WIN73AL 19.822km 256°WSW18:51:20ZRD625 438.3000/430.7000 CC1
LEHU 43.22.63N 005.49.57WIN73CJ 20.215km 209°SSW19:00:04ZHelipuerto del HUCA: LEAS 011800Z 10008KT 070V140 9999 FEW030 10/06 Q1019 NOSIG=
ED1ZAU 43.23.04N 005.52.75WIN73BJ 22.017km 220°SW18:51:14ZRD625 438.5000/430.9000 CC1
EA1FHR 43.28.72N 005.26.41WIN73GL 22.236km 107°ESE18:51:46ZMMDVM MMDVM HS Hat 439.1500/439.1500 CC1
EA1HWD 43.28.96N 005.26.30WIN73GL 22.267km 105°ESE18:52:04ZMMDVM MMDVM HS Hat 434.2500/434.2500 CC1
EA1JBU 43.21.85N 005.51.13WIN73BI 22.527km 212°SSW18:32:03ZEA1JBU(3EA1JBU-1)
33D00 43.21.63N 005.51.13WIN73BI 22.867km 211°SSW19:01:46Z33-D-00 Protección Civil REMER / Delegación del Gobierno en Asturias
EA1JAY 43.21.54N 005.51.34WIN73BI 23.164km 212°SSW18:30:05ZEA1JAY(3EA1JAY-2)
434.525MHz Nodo TETRA DMO(2EA1JAY-4)
EA1HJA 43.21.47N 005.52.09WIN73BI 23.804km 214°SW19:03:55Z IN73FL WX3IN1+ 2.0 - V=13.3V,TX TEMP=22.8C(3EA1HJA-2)
IN73FL WX3IN1+ 2.0 - V=13.9V,TX TEMP=42.8C(2EA1HJA)
EA1L 43.20.37N 005.51.13WIN73BI 24.874km 209°SSW19:05:09Zea1l@ure.es V=13.3V
Wind 005°/001kn, Böen bis 003kn, Temp 7.78c, Regen 0.0mm, letzte 24h 0.0mm, seit 0h 0.0mm, Baro 1017.5h, Hum: 79%(2EA1L-13)
EA1HWX 43.19.28N 005.50.98WIN73BH 26.592km 206°SSW18:53:43ZDMO - UHF 439.7250/431.0000 CC11(3EA1HWX-2)
MMDVM DMO 222.3400/222.3400 CC1(2EA1HWX-10)
EA1IYK 43.15.18N 005.46.10WIN73CG 31.889km 189°S18:56:49Zhttps://aprsdroid.org/(3EA1IYK-10)
EA1IMW 43.14.36N 005.46.93WIN73CF 33.578km 191°S18:53:21ZGRUPO RADIO GALENA (GRG) 430.4500/430.4500 CC1(3EA1IMW-1)
EA1JBE 43.30.90N 005.16.15WIN73IM 35.171km 94°E19:00:07ZGRUPO RADIO GALENA (GRG) 430.4500/430.4500 CC1(3EA1JBE-13)
MAIN QTH http://qrz.com/db/ea1jbe(2EA1JBE-1)
EB1DGC 43.12.60N 005.45.59WIN73CF 36.524km 187°S18:51:49ZMMDVM MMDVM HS Hat 433.4500/433.4500 CC1
EA1JBL 43.12.28N 005.47.42WIN73CE 37.472km 191°S18:52:02ZMMDVM DVMega 435.3000/435.3000 CC1
EA1HWA 43.12.00N 005.47.40WIN73CE 37.993km 191°S18:52:14ZMMDVM MMDVM HS Hat 433.4500/433.4500 CC1
EA1RCG 43.09.45N 005.49.78WIN73CD 43.269km 194°SSW18:53:13ZGRUPO RADIO GALENA (GRG) 430.4500/430.4500 CC1(3EA1RCG-3)
ED1ZAD 43.07.90N 005.38.52WIN73ED 45.220km 174°S18:54:38ZED1ZAD-3 APRS Digi/Igate(3ED1ZAD-3)
EC1KV 43.34.01N 006.16.01WIN63UN 45.440km 275°W19:02:24ZALBUERNE(3EC1KV-1)

aprs.pl 5.0.011w DL3EL © 2006-2021 [7988409]